QFA747 YSSY-YPAD
Flight info
| Callsign | QFA747 |
|---|---|
| Flight time | N/A |
| Altitude | 34000 |
| Route | DCT TESAT A576 KADOM H44 MAXEM Q60 KAKLU H309 AD DCT |
| Aircraft | B738/M-SDE2E3FGHIRWXY/LB1 |
Departure
| Time | 2026-04-23 12:34 |
|---|---|
| Airport | Sydney Kingsford Smith International Airport (YSSY) |
Arrival
| Time | N/A |
|---|---|
| Airport | Adelaide International Airport (YPAD) |
| Time | Latitude | Longitude | Altitude | Speed | Heading |
|---|---|---|---|---|---|
| 2026-04-23 11:56 | -33.93161 | 151.17636 | 18 ft | 0 kts | 114° |
| 2026-04-23 12:21 | -33.93157 | 151.17627 | 18 ft | 2 kts | 114° |
| 2026-04-23 12:21 | -33.93151 | 151.17610 | 18 ft | 2 kts | 114° |
| 2026-04-23 12:22 | -33.93145 | 151.17593 | 18 ft | 2 kts | 114° |
| 2026-04-23 12:22 | -33.93138 | 151.17578 | 18 ft | 2 kts | 114° |
| 2026-04-23 12:22 | -33.93135 | 151.17567 | 18 ft | 2 kts | 104° |
| 2026-04-23 12:22 | -33.93137 | 151.17549 | 18 ft | 2 kts | 59° |
| 2026-04-23 12:23 | -33.93148 | 151.17537 | 18 ft | 2 kts | 21° |
| 2026-04-23 12:23 | -33.93160 | 151.17534 | 18 ft | 0 kts | 350° |
| 2026-04-23 12:23 | -33.93166 | 151.17537 | 18 ft | 1 kts | 346° |
| 2026-04-23 12:23 | -33.93167 | 151.17537 | 18 ft | 0 kts | 346° |
| 2026-04-23 12:27 | -33.93145 | 151.17531 | 18 ft | 5 kts | 348° |
| 2026-04-23 12:27 | -33.93109 | 151.17522 | 19 ft | 4 kts | 344° |
| 2026-04-23 12:28 | -33.93085 | 151.17499 | 19 ft | 5 kts | 301° |
| 2026-04-23 12:28 | -33.93065 | 151.17435 | 20 ft | 10 kts | 312° |
| 2026-04-23 12:28 | -33.93005 | 151.17407 | 21 ft | 2 kts | 348° |
| 2026-04-23 12:28 | -33.92996 | 151.17404 | 21 ft | 0 kts | 348° |
| 2026-04-23 12:29 | -33.92983 | 151.17398 | 21 ft | 5 kts | 327° |
| 2026-04-23 12:29 | -33.92965 | 151.17346 | 21 ft | 7 kts | 281° |
| 2026-04-23 12:30 | -33.92962 | 151.17326 | 21 ft | 0 kts | 281° |
| 2026-04-23 12:32 | -33.92958 | 151.17302 | 21 ft | 5 kts | 281° |
| 2026-04-23 12:32 | -33.92959 | 151.17218 | 22 ft | 12 kts | 247° |
| 2026-04-23 12:33 | -33.93016 | 151.17180 | 24 ft | 8 kts | 176° |
| 2026-04-23 12:33 | -33.93067 | 151.17192 | 24 ft | 5 kts | 168° |
| 2026-04-23 12:33 | -33.93156 | 151.17217 | 23 ft | 40 kts | 167° |
| 2026-04-23 12:33 | -33.93731 | 151.17364 | 11 ft | 124 kts | 168° |
| 2026-04-23 12:34 | -33.94781 | 151.17638 | 131 ft | 179 kts | 167° |
| 2026-04-23 12:34 | -33.96067 | 151.17966 | 774 ft | 196 kts | 166° |
| 2026-04-23 12:34 | -33.97405 | 151.18143 | 1574 ft | 194 kts | 180° |
| 2026-04-23 12:34 | -33.98760 | 151.17914 | 2042 ft | 205 kts | 187° |
| 2026-04-23 12:35 | -34.00217 | 151.17642 | 2416 ft | 219 kts | 183° |
| 2026-04-23 12:35 | -34.01779 | 151.17503 | 2790 ft | 232 kts | 180° |
| 2026-04-23 12:35 | -34.03403 | 151.17656 | 3287 ft | 237 kts | 165° |
| 2026-04-23 12:35 | -34.05019 | 151.18187 | 3926 ft | 241 kts | 160° |
| 2026-04-23 12:36 | -34.06602 | 151.18767 | 4719 ft | 238 kts | 160° |
| 2026-04-23 12:36 | -34.08184 | 151.19327 | 5387 ft | 241 kts | 161° |
| 2026-04-23 12:36 | -34.09824 | 151.19884 | 5946 ft | 249 kts | 161° |
| 2026-04-23 12:36 | -34.11537 | 151.20459 | 6368 ft | 263 kts | 161° |
| 2026-04-23 12:37 | -34.13321 | 151.21053 | 7018 ft | 267 kts | 162° |
| 2026-04-23 12:37 | -34.15122 | 151.21649 | 7707 ft | 269 kts | 161° |
| 2026-04-23 12:37 | -34.16941 | 151.22223 | 8377 ft | 272 kts | 165° |
| 2026-04-23 12:37 | -34.18831 | 151.22392 | 9032 ft | 279 kts | 183° |
| 2026-04-23 12:38 | -34.20692 | 151.21686 | 9666 ft | 288 kts | 205° |
| 2026-04-23 12:38 | -34.22316 | 151.20224 | 10267 ft | 297 kts | 220° |
| 2026-04-23 12:38 | -34.23764 | 151.18382 | 10568 ft | 314 kts | 228° |
| 2026-04-23 12:38 | -34.24861 | 151.16049 | 11003 ft | 329 kts | 249° |
| 2026-04-23 12:39 | -34.25233 | 151.13295 | 11637 ft | 336 kts | 268° |
| 2026-04-23 12:39 | -34.25028 | 151.10480 | 12263 ft | 341 kts | 279° |
| 2026-04-23 12:39 | -34.24308 | 151.07759 | 12893 ft | 345 kts | 299° |
| 2026-04-23 12:39 | -34.22752 | 151.05576 | 13506 ft | 346 kts | 323° |
| 2026-04-23 12:40 | -34.20656 | 151.04190 | 14119 ft | 346 kts | 342° |
| 2026-04-23 12:40 | -34.18308 | 151.03497 | 14751 ft | 347 kts | 351° |
| 2026-04-23 12:40 | -34.15927 | 151.02960 | 15408 ft | 349 kts | 351° |
| 2026-04-23 12:40 | -34.13537 | 151.02408 | 16047 ft | 352 kts | 351° |
| 2026-04-23 12:41 | -34.11127 | 151.01833 | 16678 ft | 354 kts | 349° |
| 2026-04-23 12:41 | -34.08744 | 151.01143 | 17287 ft | 357 kts | 346° |
| 2026-04-23 12:41 | -34.06335 | 151.00334 | 17875 ft | 360 kts | 345° |
| 2026-04-23 12:41 | -34.03921 | 150.99487 | 18454 ft | 363 kts | 345° |
| 2026-04-23 12:42 | -34.01511 | 150.98483 | 18977 ft | 368 kts | 336° |
| 2026-04-23 12:42 | -33.99303 | 150.96909 | 19525 ft | 371 kts | 322° |
| 2026-04-23 12:42 | -33.97417 | 150.94702 | 19862 ft | 380 kts | 309° |
| 2026-04-23 12:42 | -33.95930 | 150.92081 | 20271 ft | 385 kts | 298° |
| 2026-04-23 12:43 | -33.94716 | 150.89189 | 20829 ft | 387 kts | 294° |
| 2026-04-23 12:43 | -33.93621 | 150.86230 | 21376 ft | 389 kts | 292° |
| 2026-04-23 12:43 | -33.92545 | 150.83250 | 21873 ft | 391 kts | 292° |
| 2026-04-23 12:43 | -33.91442 | 150.80257 | 22364 ft | 394 kts | 292° |
| 2026-04-23 12:44 | -33.90306 | 150.77266 | 22874 ft | 396 kts | 293° |
| 2026-04-23 12:44 | -33.89131 | 150.74258 | 23331 ft | 399 kts | 294° |
| 2026-04-23 12:44 | -33.87927 | 150.71234 | 23784 ft | 402 kts | 294° |
| 2026-04-23 12:44 | -33.86716 | 150.68224 | 24236 ft | 404 kts | 294° |
| 2026-04-23 12:45 | -33.85480 | 150.65173 | 24640 ft | 408 kts | 294° |
| 2026-04-23 12:45 | -33.84224 | 150.62087 | 25055 ft | 411 kts | 294° |
| 2026-04-23 12:45 | -33.82975 | 150.59023 | 25502 ft | 412 kts | 294° |
| 2026-04-23 12:45 | -33.81698 | 150.55896 | 25882 ft | 415 kts | 294° |
| 2026-04-23 12:46 | -33.80428 | 150.52792 | 26289 ft | 418 kts | 294° |
| 2026-04-23 12:46 | -33.79151 | 150.49670 | 26677 ft | 420 kts | 294° |
| 2026-04-23 12:46 | -33.77858 | 150.46513 | 27026 ft | 423 kts | 294° |
| 2026-04-23 12:46 | -33.76550 | 150.43324 | 27465 ft | 423 kts | 294° |
| 2026-04-23 12:47 | -33.75248 | 150.40150 | 27790 ft | 427 kts | 294° |
| 2026-04-23 12:47 | -33.73943 | 150.36972 | 28194 ft | 427 kts | 294° |
| 2026-04-23 12:47 | -33.72715 | 150.33679 | 28495 ft | 430 kts | 289° |
| 2026-04-23 12:47 | -33.71860 | 150.30275 | 28835 ft | 430 kts | 280° |
| 2026-04-23 12:48 | -33.71496 | 150.26708 | 29176 ft | 429 kts | 270° |
| 2026-04-23 12:48 | -33.71553 | 150.23155 | 29463 ft | 430 kts | 264° |
| 2026-04-23 12:48 | -33.71801 | 150.19559 | 29792 ft | 431 kts | 262° |
| 2026-04-23 12:48 | -33.72124 | 150.16010 | 30069 ft | 433 kts | 262° |
| 2026-04-23 12:49 | -33.72483 | 150.12366 | 30401 ft | 435 kts | 261° |
| 2026-04-23 12:49 | -33.72837 | 150.08783 | 30642 ft | 438 kts | 261° |
| 2026-04-23 12:49 | -33.73190 | 150.05112 | 30985 ft | 438 kts | 262° |
| 2026-04-23 12:49 | -33.73530 | 150.01463 | 31241 ft | 440 kts | 262° |
| 2026-04-23 12:50 | -33.73865 | 149.97757 | 31532 ft | 442 kts | 262° |
| 2026-04-23 12:50 | -33.74190 | 149.94072 | 31782 ft | 444 kts | 262° |
| 2026-04-23 12:50 | -33.74512 | 149.90369 | 32067 ft | 445 kts | 262° |
| 2026-04-23 12:50 | -33.74833 | 149.86632 | 32251 ft | 448 kts | 261° |
| 2026-04-23 12:51 | -33.75150 | 149.82903 | 32524 ft | 449 kts | 261° |
| 2026-04-23 12:51 | -33.75467 | 149.79153 | 32783 ft | 451 kts | 261° |
| 2026-04-23 12:51 | -33.75785 | 149.75382 | 32949 ft | 454 kts | 261° |
| 2026-04-23 12:51 | -33.76102 | 149.71588 | 33233 ft | 455 kts | 261° |
| 2026-04-23 12:52 | -33.76416 | 149.67806 | 33438 ft | 457 kts | 261° |
| 2026-04-23 12:52 | -33.76730 | 149.64008 | 33835 ft | 454 kts | 261° |
| 2026-04-23 12:52 | -33.77038 | 149.60254 | 34205 ft | 452 kts | 261° |
| 2026-04-23 12:52 | -33.77345 | 149.56502 | 34436 ft | 452 kts | 260° |
| 2026-04-23 12:53 | -33.77958 | 149.49011 | 34447 ft | 450 kts | 260° |
| 2026-04-23 12:53 | -33.78564 | 149.41550 | 34442 ft | 450 kts | 259° |
| 2026-04-23 12:54 | -33.79169 | 149.34059 | 34451 ft | 452 kts | 260° |
| 2026-04-23 12:54 | -33.79769 | 149.26558 | 34450 ft | 452 kts | 259° |
| 2026-04-23 12:55 | -33.80365 | 149.19051 | 34446 ft | 451 kts | 260° |
| 2026-04-23 12:55 | -33.80955 | 149.11556 | 34435 ft | 450 kts | 259° |
| 2026-04-23 12:56 | -33.81540 | 149.04068 | 34435 ft | 451 kts | 259° |
| 2026-04-23 12:56 | -33.82120 | 148.96593 | 34424 ft | 450 kts | 259° |
| 2026-04-23 12:57 | -33.82700 | 148.89061 | 34428 ft | 451 kts | 259° |
| 2026-04-23 12:57 | -33.83275 | 148.81529 | 34433 ft | 450 kts | 258° |
| 2026-04-23 12:58 | -33.83843 | 148.74031 | 34441 ft | 451 kts | 259° |
| 2026-04-23 12:58 | -33.84411 | 148.66525 | 34439 ft | 450 kts | 258° |
| 2026-04-23 12:59 | -33.85341 | 148.59143 | 34432 ft | 446 kts | 252° |
| 2026-04-23 12:59 | -33.86597 | 148.51827 | 34426 ft | 445 kts | 251° |